Time;durP1;ratioP1;P1;durP2;ratioP2;P2;SDS_P1;SDS_P2;PMS_P1;PMS_P2;Temp;Humidity;BMP_temperature;BMP_pressure;BME280_temperature;BME280_humidity;BME280_pressure;Samples;Min_cycle;Max_cycle;Signal;HPM_P1;HPM_P2
2022/04/16 00:02:19;;;;;;;3.05;2.42;;;;;;;13.91;57.24;101080.53;5091950;28;20051;-61
2022/04/16 00:04:47;;;;;;;2.88;2.40;;;;;;;13.79;58.43;101069.09;5092155;28;20069;-61
2022/04/16 00:07:14;;;;;;;4.03;2.92;;;;;;;13.69;57.70;101072.75;5091713;28;20040;-61
2022/04/16 00:09:42;;;;;;;3.38;2.78;;;;;;;13.60;58.39;101074.47;5078943;28;20070;-61
2022/04/16 00:12:10;;;;;;;3.42;3.13;;;;;;;13.58;58.72;101077.50;5074435;28;20510;-61
2022/04/16 00:14:38;;;;;;;3.33;3.00;;;;;;;13.55;58.78;101067.91;5089579;28;20059;-62
2022/04/16 00:17:06;;;;;;;4.03;3.42;;;;;;;13.50;58.86;101075.38;5084374;28;20048;-61
2022/04/16 00:19:34;;;;;;;3.70;3.08;;;;;;;13.51;59.27;101066.84;5091783;28;20060;-61
2022/04/16 00:22:07;;;;;;;3.33;3.03;;;;;;;13.54;59.93;101063.53;5090851;28;20502;-61
2022/04/16 00:24:36;;;;;;;5.50;2.55;;;;;;;13.48;60.37;101058.38;5091988;28;20036;-61
2022/04/16 00:27:04;;;;;;;3.22;2.85;;;;;;;13.53;61.40;101063.81;5091922;28;20055;-61
2022/04/16 00:29:32;;;;;;;3.80;2.95;;;;;;;13.56;61.65;101060.50;5089384;28;20044;-61
2022/04/16 00:32:00;;;;;;;3.58;3.00;;;;;;;13.56;61.65;101052.25;5091636;28;20047;-61
2022/04/16 00:34:28;;;;;;;4.57;3.15;;;;;;;13.57;61.83;101053.88;5091726;28;20040;-61
2022/04/16 00:36:56;;;;;;;4.63;3.15;;;;;;;13.57;62.14;101051.97;5085592;28;20044;-61
2022/04/16 00:39:25;;;;;;;3.75;2.72;;;;;;;13.54;62.59;101057.22;5095819;28;20819;-61
2022/04/16 00:41:53;;;;;;;6.93;3.22;;;;;;;13.41;63.43;101039.41;5095582;28;20390;-61
2022/04/16 00:44:21;;;;;;;5.63;2.80;;;;;;;13.37;63.96;101041.09;5095607;28;20510;-61
2022/04/16 00:46:49;;;;;;;3.60;2.90;;;;;;;13.42;64.18;101041.88;5096055;28;20055;-61
2022/04/16 00:49:17;;;;;;;4.47;3.17;;;;;;;13.54;63.57;101046.22;5094638;28;20052;-62
2022/04/16 00:51:46;;;;;;;3.97;3.10;;;;;;;13.37;64.62;101043.84;5095695;28;20059;-61
2022/04/16 00:54:16;;;;;;;6.07;3.17;;;;;;;13.24;65.20;101042.59;5095656;28;20509;-61
2022/04/16 00:56:44;;;;;;;3.30;2.90;;;;;;;13.11;65.88;101042.09;5095485;28;20048;-61
2022/04/16 00:59:12;;;;;;;5.03;3.28;;;;;;;13.14;65.30;101040.72;5093743;28;20498;-62
2022/04/16 01:01:40;;;;;;;3.97;3.13;;;;;;;13.21;65.23;101035.72;5095280;28;20048;-61
2022/04/16 01:04:08;;;;;;;5.10;2.88;;;;;;;13.06;66.02;101030.34;5095300;28;20044;-61
2022/04/16 01:06:39;;;;;;;5.00;3.20;;;;;;;12.95;66.80;101029.59;5083012;28;20036;-61
2022/04/16 01:09:07;;;;;;;5.20;3.70;;;;;;;12.84;66.76;101021.41;5090025;28;20048;-61
2022/04/16 01:11:35;;;;;;;4.68;3.80;;;;;;;12.94;66.63;101025.22;5094235;28;20059;-62
2022/04/16 01:14:03;;;;;;;5.72;3.72;;;;;;;13.09;66.30;101025.09;5095249;28;20056;-61
2022/04/16 01:16:33;;;;;;;6.90;3.42;;;;;;;13.19;65.75;101017.88;5095069;28;20052;-61
2022/04/16 01:19:02;;;;;;;4.45;3.03;;;;;;;13.14;66.36;101014.06;5095156;28;20515;-61
2022/04/16 01:21:29;;;;;;;5.43;3.20;;;;;;;12.89;67.74;101013.16;5095311;28;20421;-62
2022/04/16 01:23:58;;;;;;;3.83;2.90;;;;;;;12.90;67.19;101011.19;5095219;28;20040;-61
2022/04/16 01:26:25;;;;;;;6.15;3.45;;;;;;;12.90;67.12;101005.72;5091462;28;20044;-61
2022/04/16 01:28:53;;;;;;;3.65;3.15;;;;;;;12.93;67.00;101015.31;5088212;28;20401;-62
2022/04/16 01:31:21;;;;;;;3.75;2.92;;;;;;;12.78;68.24;101017.06;5094796;28;20048;-61
2022/04/16 01:33:49;;;;;;;4.75;3.25;;;;;;;12.71;68.64;101011.06;5094989;28;20051;-61
2022/04/16 01:36:17;;;;;;;7.15;3.58;;;;;;;12.55;69.18;101008.41;5090976;28;20052;-61
2022/04/16 01:38:45;;;;;;;5.30;3.35;;;;;;;12.48;69.54;101013.38;5094431;28;20394;-61
2022/04/16 01:41:13;;;;;;;4.60;3.10;;;;;;;12.51;69.98;101012.81;5094601;28;20051;-61
2022/04/16 01:43:40;;;;;;;5.28;3.00;;;;;;;12.52;69.86;101003.50;5094602;28;20052;-61
2022/04/16 01:46:08;;;;;;;4.10;3.25;;;;;;;12.43;70.43;101005.16;5094656;28;20156;-61
2022/04/16 01:48:36;;;;;;;3.88;2.92;;;;;;;12.31;71.84;101000.81;5093665;28;20044;-61
2022/04/16 01:51:05;;;;;;;3.25;2.60;;;;;;;12.21;71.82;101009.09;5094332;28;20063;-61
2022/04/16 01:53:33;;;;;;;6.55;3.17;;;;;;;12.14;72.15;101003.09;5094395;28;20047;-61
2022/04/16 01:56:01;;;;;;;4.22;2.90;;;;;;;12.18;71.56;100996.75;5094432;28;20036;-61
2022/04/16 01:58:29;;;;;;;5.05;3.08;;;;;;;12.26;71.47;100989.88;5094649;28;20067;-61
2022/04/16 02:00:58;;;;;;;5.00;2.92;;;;;;;12.35;71.43;100990.94;5094330;28;20052;-61
2022/04/16 02:03:27;;;;;;;4.47;3.80;;;;;;;12.56;70.19;100998.25;5094346;28;20051;-61
2022/04/16 02:05:55;;;;;;;4.20;3.13;;;;;;;12.72;69.57;100993.47;5080867;28;20052;-62
2022/04/16 02:08:23;;;;;;;6.65;3.60;;;;;;;12.63;69.30;100988.56;5094298;28;20052;-62
2022/04/16 02:10:51;;;;;;;3.92;3.25;;;;;;;12.45;70.16;100992.81;5094162;28;20044;-62
2022/04/16 02:13:19;;;;;;;3.97;3.45;;;;;;;12.25;71.29;100992.88;5092851;28;20051;-61
2022/04/16 02:15:47;;;;;;;3.90;3.17;;;;;;;12.13;71.69;100993.22;5093704;28;20616;-61
2022/04/16 02:18:15;;;;;;;4.70;3.22;;;;;;;12.02;72.08;100987.75;5093727;28;20048;-61
2022/04/16 02:20:44;;;;;;;4.82;3.50;;;;;;;11.93;72.69;100992.19;5093954;28;20052;-61
2022/04/16 02:23:12;;;;;;;3.47;3.15;;;;;;;11.83;72.59;100987.50;5093504;28;20050;-61
2022/04/16 02:25:42;;;;;;;5.75;4.05;;;;;;;11.74;73.07;100981.81;5093949;28;20052;-61
2022/04/16 02:28:10;;;;;;;4.68;3.95;;;;;;;11.72;73.73;100986.72;5084766;28;20052;-61
2022/04/16 02:30:40;;;;;;;4.80;4.05;;;;;;;11.69;73.31;100974.41;5093588;28;20493;-61
2022/04/16 02:33:10;;;;;;;8.07;4.85;;;;;;;11.62;73.51;100975.78;5093283;28;20055;-61
2022/04/16 02:35:39;;;;;;;5.63;3.67;;;;;;;11.65;73.56;100980.72;5090431;28;20390;-61
2022/04/16 02:38:07;;;;;;;5.93;4.10;;;;;;;11.58;73.81;100982.94;5093571;28;20044;-61
2022/04/16 02:40:35;;;;;;;5.50;3.85;;;;;;;11.51;74.23;100981.31;5093900;28;20531;-61
2022/04/16 02:43:03;;;;;;;7.82;4.30;;;;;;;11.56;74.17;100974.97;5093613;28;20048;-61
2022/04/16 02:48:18;;;;;;;7.50;3.85;;;;;;;11.54;74.22;100969.75;5089696;28;20409;-61
2022/04/16 02:50:46;;;;;;;7.32;3.88;;;;;;;11.46;75.04;100962.13;5093684;28;20044;-61
2022/04/16 02:53:14;;;;;;;4.50;3.75;;;;;;;11.47;74.32;100962.91;5086650;28;20047;-61
2022/04/16 02:55:46;;;;;;;5.45;3.88;;;;;;;11.53;74.38;100968.13;5082939;28;20055;-61
2022/04/16 02:58:14;;;;;;;5.90;4.45;;;;;;;11.48;74.55;100970.06;5081369;28;20063;-61
2022/04/16 03:00:42;;;;;;;8.27;4.07;;;;;;;11.40;74.77;100968.72;5083470;28;20044;-61
2022/04/16 03:03:10;;;;;;;4.28;3.83;;;;;;;11.38;75.25;100959.91;5081020;28;20071;-61
2022/04/16 03:05:39;;;;;;;6.18;4.32;;;;;;;11.68;73.06;100967.28;5090539;28;20063;-61
2022/04/16 03:08:10;;;;;;;8.15;4.47;;;;;;;11.79;72.54;100965.31;5078993;28;20521;-61
2022/04/16 03:10:38;;;;;;;7.38;4.50;;;;;;;11.80;72.13;100966.97;5090620;28;20052;-61
2022/04/16 03:13:06;;;;;;;7.03;4.43;;;;;;;11.69;73.12;100962.63;5087166;28;20051;-61
2022/04/16 03:18:21;;;;;;;6.88;3.58;;;;;;;11.48;74.40;100954.44;5060731;28;20403;-61
2022/04/16 03:20:49;;;;;;;5.20;4.35;;;;;;;11.48;74.18;100956.38;5085141;28;20047;-61
2022/04/16 03:23:17;;;;;;;8.60;4.45;;;;;;;11.68;73.14;100958.22;5091115;28;20047;-61
2022/04/16 03:25:45;;;;;;;7.28;4.15;;;;;;;11.63;73.47;100956.31;5087885;28;20056;-61
2022/04/16 03:28:13;;;;;;;6.10;4.47;;;;;;;11.55;73.55;100960.44;5084471;28;20044;-61
2022/04/16 03:30:41;;;;;;;5.47;4.20;;;;;;;11.60;73.25;100956.06;5084532;28;20056;-61
2022/04/16 03:33:09;;;;;;;8.77;4.68;;;;;;;11.63;73.15;100955.50;5086815;28;20055;-61
2022/04/16 03:35:37;;;;;;;5.88;4.57;;;;;;;11.52;74.04;100954.69;5080773;28;20052;-62
2022/04/16 03:38:05;;;;;;;10.82;4.97;;;;;;;11.35;74.37;100953.06;5089400;28;20048;-61
2022/04/16 03:40:33;;;;;;;7.38;4.53;;;;;;;11.18;75.23;100945.16;5086364;28;20048;-61
2022/04/16 03:43:02;;;;;;;6.00;4.45;;;;;;;11.12;76.06;100949.81;5083949;28;20064;-61
2022/04/16 03:45:35;;;;;;;7.68;3.70;;;;;;;11.10;75.58;100948.47;5089951;28;20047;-61
2022/04/16 03:48:05;;;;;;;6.30;4.05;;;;;;;11.32;74.46;100944.59;5084731;28;20052;-61
2022/04/16 03:50:35;;;;;;;6.35;4.32;;;;;;;11.18;75.75;100945.16;5078314;28;20048;-61
2022/04/16 03:53:03;;;;;;;6.70;4.25;;;;;;;11.12;75.52;100952.56;5089413;28;20056;-61
2022/04/16 04:01:08;;;;;;;7.15;4.30;;;;;;;10.94;77.05;100950.38;5071423;28;20056;-61
2022/04/16 04:03:36;;;;;;;6.07;4.32;;;;;;;10.90;76.96;100944.59;5069510;28;20060;-62
2022/04/16 04:06:05;;;;;;;7.43;4.22;;;;;;;10.86;77.13;100958.00;5076037;28;20059;-61
2022/04/16 04:08:33;;;;;;;5.65;4.28;;;;;;;10.83;77.45;100960.47;5081531;28;20048;-61
2022/04/16 04:11:03;;;;;;;5.57;4.60;;;;;;;10.79;77.47;100960.22;5092000;28;20059;-61
2022/04/16 04:13:31;;;;;;;7.38;4.68;;;;;;;10.80;77.71;100956.38;5091836;28;20079;-61
2022/04/16 04:15:59;;;;;;;5.65;4.15;;;;;;;10.78;77.69;100963.22;5091695;28;20048;-61
2022/04/16 04:18:27;;;;;;;7.07;4.28;;;;;;;10.97;76.89;100966.25;5092294;28;20052;-61
2022/04/16 04:20:56;;;;;;;6.13;4.50;;;;;;;10.94;76.97;100959.41;5091728;28;20394;-62
2022/04/16 04:23:24;;;;;;;5.75;3.90;;;;;;;10.86;77.01;100965.44;5091519;28;20048;-62
2022/04/16 04:25:52;;;;;;;6.07;4.32;;;;;;;10.79;77.65;100962.13;5090845;28;20043;-61
2022/04/16 04:28:20;;;;;;;7.72;4.80;;;;;;;10.72;78.35;100963.19;5080808;28;20485;-61
2022/04/16 04:30:48;;;;;;;5.75;4.88;;;;;;;10.73;78.60;100967.59;5091454;28;20056;-61
2022/04/16 04:33:16;;;;;;;10.57;4.68;;;;;;;10.77;78.32;100964.31;5090987;28;20402;-62
2022/04/16 04:35:44;;;;;;;6.53;4.90;;;;;;;11.07;76.58;100970.91;5091428;28;20540;-62
2022/04/16 04:38:12;;;;;;;6.70;4.45;;;;;;;11.15;76.55;100967.63;5091813;28;20055;-61
2022/04/16 04:40:40;;;;;;;8.77;5.13;;;;;;;11.11;76.55;100969.25;5091910;28;20486;-61
2022/04/16 04:43:08;;;;;;;9.07;4.60;;;;;;;11.05;76.49;100973.09;5091178;28;20052;-61
2022/04/16 04:45:36;;;;;;;10.77;5.60;;;;;;;11.04;77.49;100976.94;5091240;28;20044;-61
2022/04/16 04:48:04;;;;;;;8.25;4.30;;;;;;;11.05;76.58;100973.09;5091686;28;20044;-61
2022/04/16 04:50:32;;;;;;;6.95;4.90;;;;;;;10.95;77.07;100977.47;5091239;28;20044;-61
2022/04/16 04:53:00;;;;;;;6.90;4.53;;;;;;;10.91;77.50;100984.59;5091217;28;20044;-61
2022/04/16 04:55:29;;;;;;;6.50;4.43;;;;;;;10.91;76.79;100975.56;5091569;28;20032;-61
2022/04/16 04:57:56;;;;;;;7.72;4.65;;;;;;;10.99;76.24;100975.00;5091999;28;20719;-61
2022/04/16 05:00:24;;;;;;;5.68;4.53;;;;;;;10.96;76.71;100978.31;5091459;28;20048;-61
2022/04/16 05:02:52;;;;;;;9.00;4.38;;;;;;;11.01;76.50;100976.38;5080822;28;20490;-61
2022/04/16 05:05:20;;;;;;;5.43;4.65;;;;;;;11.10;75.87;100984.06;5086634;28;20551;-62
2022/04/16 05:07:48;;;;;;;6.35;4.82;;;;;;;11.22;75.95;100984.59;5068452;28;20505;-61
2022/04/16 05:10:16;;;;;;;6.43;4.47;;;;;;;11.31;75.60;100987.63;5077887;28;20044;-61
2022/04/16 05:12:44;;;;;;;5.75;4.30;;;;;;;11.35;75.44;100998.84;5074236;28;20076;-62
2022/04/16 05:15:12;;;;;;;5.72;4.53;;;;;;;11.46;74.60;100995.00;5090445;28;20133;-61
2022/04/16 05:17:40;;;;;;;5.18;4.25;;;;;;;11.61;74.34;100993.31;5091266;28;20051;-61
2022/04/16 05:20:09;;;;;;;6.82;4.55;;;;;;;11.71;73.49;100985.09;5090945;28;20052;-61
2022/04/16 05:22:38;;;;;;;7.43;4.47;;;;;;;12.02;73.21;100992.41;5090684;28;20052;-67
2022/04/16 05:25:07;;;;;;;6.78;4.22;;;;;;;12.42;70.94;100982.38;5066869;28;20119;-68
2022/04/16 05:27:35;;;;;;;11.57;4.78;;;;;;;12.77;69.08;100987.97;5058943;28;20395;-68
2022/04/16 05:30:07;;;;;;;6.05;4.55;;;;;;;12.96;68.45;100984.53;5075905;28;20051;-67
2022/04/16 05:32:40;;;;;;;9.63;4.55;;;;;;;13.13;67.58;100990.44;5077142;28;20055;-68
2022/04/16 05:35:10;;;;;;;5.53;4.43;;;;;;;13.40;66.42;100993.78;5077082;28;20055;-68
2022/04/16 05:37:39;;;;;;;6.25;4.28;;;;;;;13.40;65.98;100986.34;5060727;28;20040;-68
2022/04/16 05:40:07;;;;;;;5.50;4.60;;;;;;;13.48;65.70;100982.19;5071057;28;20059;-68
2022/04/16 05:42:40;;;;;;;7.60;4.55;;;;;;;13.54;66.08;100989.28;5093240;28;20506;-69
2022/04/16 05:45:09;;;;;;;6.25;4.85;;;;;;;13.59;65.63;100990.34;5076911;28;20063;-68
2022/04/16 05:47:38;;;;;;;5.80;4.65;;;;;;;13.67;65.06;100974.03;5093639;28;20047;-68
2022/04/16 05:50:06;;;;;;;6.38;4.85;;;;;;;13.75;64.51;100972.59;5094716;28;20052;-68
2022/04/16 05:52:34;;;;;;;5.85;4.95;;;;;;;13.92;63.70;100976.78;5092134;28;20059;-68
2022/04/16 05:55:03;;;;;;;6.45;4.63;;;;;;;14.04;63.37;100981.88;5092293;28;20048;-68
2022/04/16 05:57:32;;;;;;;5.97;4.50;;;;;;;14.10;63.33;100981.53;5074868;28;20032;-68
2022/04/16 06:00:00;;;;;;;7.22;4.95;;;;;;;14.30;62.85;100987.06;5083877;28;20056;-68
2022/04/16 06:02:28;;;;;;;6.68;4.78;;;;;;;14.37;61.88;100982.00;5093332;28;20055;-68
2022/04/16 06:04:56;;;;;;;6.22;4.78;;;;;;;14.45;61.02;100989.63;5083528;28;20040;-68
2022/04/16 06:07:24;;;;;;;7.15;4.45;;;;;;;14.59;60.82;100988.88;5088089;28;20055;-68
2022/04/16 06:09:52;;;;;;;9.27;4.78;;;;;;;14.80;60.86;100989.41;5072759;28;20039;-68
2022/04/16 06:12:20;;;;;;;5.93;4.20;;;;;;;14.96;59.95;100992.75;5077299;28;20044;-68
2022/04/16 06:14:51;;;;;;;11.68;5.15;;;;;;;15.12;60.57;100987.84;5092937;28;20040;-68
2022/04/16 06:17:19;;;;;;;8.13;4.53;;;;;;;15.27;59.05;100981.25;5069142;28;20127;-68
2022/04/16 06:19:47;;;;;;;7.82;4.90;;;;;;;15.40;57.95;100998.13;5067087;28;20053;-66
2022/04/16 06:22:23;;;;;;;9.27;5.20;;;;;;;15.53;57.94;100991.81;5071088;28;20055;-68
2022/04/16 06:24:56;;;;;;;7.70;4.72;;;;;;;15.66;57.33;101000.41;5066350;28;20424;-69
2022/04/16 06:27:38;;;;;;;6.22;4.28;;;;;;;15.84;56.80;100999.50;5064952;28;20048;-68
2022/04/16 06:30:10;;;;;;;7.18;5.13;;;;;;;15.95;56.20;100989.16;5067670;28;20056;-69
2022/04/16 06:32:38;;;;;;;6.85;4.93;;;;;;;16.10;55.26;101001.00;5065789;28;20037;-68
2022/04/16 06:35:07;;;;;;;7.18;4.57;;;;;;;16.23;55.29;100994.63;5067019;28;20049;-69
2022/04/16 06:37:43;;;;;;;6.38;4.43;;;;;;;16.35;53.29;100996.88;5068304;28;20394;-68
2022/04/16 06:40:20;;;;;;;7.32;4.07;;;;;;;16.44;53.39;100994.22;5071790;28;20052;-68
2022/04/16 06:42:52;;;;;;;5.60;4.28;;;;;;;16.50;52.21;100992.97;5065994;28;20422;-68
2022/04/16 06:45:22;;;;;;;7.63;4.63;;;;;;;16.59;52.68;100987.53;5058245;28;20498;-68
2022/04/16 06:47:50;;;;;;;6.55;3.60;;;;;;;16.66;52.38;100984.31;5063028;28;20398;-68
2022/04/16 06:50:18;;;;;;;6.20;3.88;;;;;;;16.81;51.82;100990.63;5071477;28;20052;-68
2022/04/16 06:52:46;;;;;;;4.70;3.92;;;;;;;16.98;52.08;100992.69;5072879;28;20041;-68
2022/04/16 06:55:18;;;;;;;6.95;3.83;;;;;;;17.13;50.89;100997.06;5068837;28;20475;-68
2022/04/16 06:57:46;;;;;;;14.80;4.45;;;;;;;17.25;50.48;100993.75;5059299;28;20111;-68
2022/04/16 07:00:14;;;;;;;6.38;3.80;;;;;;;17.12;49.21;100998.22;5059383;28;20051;-68
2022/04/16 07:02:42;;;;;;;10.68;4.80;;;;;;;17.24;50.05;101005.91;5071919;28;20041;-67
2022/04/16 07:05:10;;;;;;;5.45;3.90;;;;;;;17.27;50.00;100997.00;5082062;28;20040;-68
2022/04/16 07:07:38;;;;;;;6.22;4.10;;;;;;;17.37;49.58;101001.47;5087065;28;20498;-68
2022/04/16 07:10:07;;;;;;;6.28;4.28;;;;;;;17.51;49.57;101007.75;5088976;28;20052;-68
2022/04/16 07:12:36;;;;;;;6.53;4.43;;;;;;;17.71;49.15;101008.31;5067499;28;20051;-68
2022/04/16 07:15:05;;;;;;;6.18;4.20;;;;;;;17.66;48.46;101020.34;5066535;28;20041;-68
2022/04/16 07:17:33;;;;;;;5.97;4.75;;;;;;;17.68;48.58;101003.41;5056152;28;20481;-68
2022/04/16 07:20:01;;;;;;;7.57;4.50;;;;;;;17.79;48.58;101012.28;5054950;28;20399;-68
2022/04/16 07:22:29;;;;;;;7.38;4.93;;;;;;;17.82;48.39;101022.69;5057785;28;20051;-68
2022/04/16 07:24:57;;;;;;;7.88;4.95;;;;;;;17.94;48.92;101017.38;5073556;28;20514;-68
2022/04/16 07:27:25;;;;;;;8.82;4.97;;;;;;;18.16;48.02;101017.63;5055173;28;20040;-68
2022/04/16 07:29:59;;;;;;;6.45;5.07;;;;;;;18.21;48.11;101021.09;5068735;28;20048;-68
2022/04/16 07:32:27;;;;;;;8.45;5.00;;;;;;;18.25;48.86;101016.53;5055164;28;20381;-68
2022/04/16 07:34:55;;;;;;;8.57;4.97;;;;;;;18.41;48.39;101010.53;5054334;28;20039;-68
2022/04/16 07:37:23;;;;;;;9.07;4.68;;;;;;;18.53;48.92;101015.47;5054161;28;20499;-68
2022/04/16 07:39:52;;;;;;;8.48;5.43;;;;;;;18.59;48.70;101018.88;5067510;28;20051;-68
2022/04/16 07:42:19;;;;;;;7.20;5.43;;;;;;;18.69;49.06;101015.78;5071502;28;20040;-68
2022/04/16 07:44:47;;;;;;;9.75;5.75;;;;;;;18.76;49.17;101010.56;5070231;28;20048;-67
2022/04/16 07:47:15;;;;;;;5.93;4.95;;;;;;;18.89;48.76;101007.97;5071381;28;20407;-68
2022/04/16 07:49:43;;;;;;;7.82;4.88;;;;;;;18.98;49.33;101019.88;5070792;28;20040;-67
2022/04/16 07:52:11;;;;;;;7.10;4.47;;;;;;;19.11;48.81;101004.22;5071171;28;20044;-68
2022/04/16 07:54:39;;;;;;;5.38;4.45;;;;;;;19.13;49.79;101013.06;5087761;28;20066;-68
2022/04/16 07:57:08;;;;;;;6.35;5.00;;;;;;;19.20;49.68;101009.75;5091966;28;20040;-68
2022/04/16 07:59:36;;;;;;;6.28;4.68;;;;;;;19.22;49.47;101001.94;5084534;28;20043;-68
2022/04/16 08:02:04;;;;;;;7.20;4.95;;;;;;;19.24;51.15;101007.13;5092089;28;20048;-68
2022/04/16 08:04:32;;;;;;;6.70;4.82;;;;;;;19.30;50.17;101012.19;5090835;28;20517;-68
2022/04/16 08:07:00;;;;;;;7.35;4.60;;;;;;;19.30;49.70;101006.66;5091779;28;20051;-68
2022/04/16 08:09:28;;;;;;;6.95;4.65;;;;;;;19.52;49.65;101006.75;5090640;28;20390;-68
2022/04/16 08:11:57;;;;;;;10.00;5.28;;;;;;;19.59;49.62;101007.88;5091979;28;20043;-68
2022/04/16 08:14:26;;;;;;;8.80;4.20;;;;;;;19.43;49.40;101015.13;5090625;28;20048;-68
2022/04/16 08:16:55;;;;;;;8.30;4.65;;;;;;;19.41;48.82;101011.88;5091740;28;20047;-68
2022/04/16 08:19:23;;;;;;;3.83;3.42;;;;;;;19.41;48.37;101017.41;5091807;28;20051;-68
2022/04/16 08:21:53;;;;;;;4.07;3.25;;;;;;;19.51;48.43;101028.19;5091835;28;20032;-68
2022/04/16 08:26:58;;;;;;;2.33;2.13;;;;;;;19.72;46.57;101017.16;5091892;28;20050;-68
2022/04/16 08:29:26;;;;;;;3.75;3.05;;;;;;;19.70;46.52;101026.97;5091822;28;20051;-68
2022/04/16 08:31:54;;;;;;;3.17;2.88;;;;;;;19.85;46.08;101023.63;5090623;28;20044;-69
2022/04/16 08:34:41;;;;;;;7.55;2.83;;;;;;;19.90;46.02;101032.94;5091676;28;20044;-70
2022/04/16 08:37:09;;;;;;;2.65;2.45;;;;;;;19.98;45.23;101032.94;5091747;28;20048;-69
2022/04/16 08:39:38;;;;;;;5.25;2.40;;;;;;;19.94;44.91;101028.34;5091708;28;20047;-68
2022/04/16 08:42:06;;;;;;;3.28;2.78;;;;;;;19.92;44.65;101020.34;5091558;28;20107;-68
2022/04/16 08:44:38;;;;;;;2.75;2.47;;;;;;;19.95;44.58;101025.22;5091624;28;20040;-68
2022/04/16 08:47:06;;;;;;;2.58;2.38;;;;;;;20.09;44.66;101040.91;5091585;28;20047;-69
2022/04/16 08:49:34;;;;;;;2.90;2.60;;;;;;;20.18;44.41;101038.88;5085191;28;20047;-69
2022/04/16 08:52:03;;;;;;;4.15;2.45;;;;;;;20.14;44.11;101037.94;5070070;28;20056;-68
2022/04/16 08:54:31;;;;;;;3.22;2.60;;;;;;;20.38;43.32;101037.31;5080887;28;20040;-69
2022/04/16 08:56:59;;;;;;;2.95;2.60;;;;;;;20.45;42.94;101041.50;5081446;28;20041;-68
2022/04/16 08:59:27;;;;;;;6.28;2.60;;;;;;;20.30;42.57;101042.91;5082898;28;20045;-68
2022/04/16 09:01:56;;;;;;;3.28;2.30;;;;;;;20.37;42.76;101019.00;5084984;28;20047;-68
2022/04/16 09:04:31;;;;;;;2.83;2.63;;;;;;;20.22;42.49;101027.91;5069010;28;20051;-68
2022/04/16 09:07:00;;;;;;;3.95;2.67;;;;;;;20.09;42.78;101038.91;5083140;28;20050;-68
2022/04/16 09:09:29;;;;;;;3.20;2.70;;;;;;;20.04;43.08;101039.09;5095246;28;20043;-68
2022/04/16 09:11:56;;;;;;;5.38;2.90;;;;;;;20.18;43.61;101026.97;5095240;28;20346;-68
2022/04/16 09:14:42;;;;;;;3.22;2.80;;;;;;;20.41;42.93;101028.31;5095127;28;20055;-68
2022/04/16 09:17:16;;;;;;;2.67;2.45;;;;;;;20.60;42.92;101029.81;5093841;28;20067;-68
2022/04/16 09:19:53;;;;;;;3.60;2.60;;;;;;;20.64;42.48;101025.19;5095022;28;20040;-68
2022/04/16 09:22:35;;;;;;;6.47;3.70;;;;;;;20.57;42.87;101032.47;5095083;28;20036;-69
2022/04/16 09:25:12;;;;;;;2.80;2.55;;;;;;;20.71;42.89;101023.84;5094841;28;20051;-68
2022/04/16 09:27:52;;;;;;;4.07;2.95;;;;;;;20.83;42.48;101018.38;5093875;28;20051;-68
2022/04/16 09:30:33;;;;;;;3.55;2.97;;;;;;;20.75;42.66;101016.44;5094992;28;20044;-69
2022/04/16 09:33:02;;;;;;;4.38;2.92;;;;;;;20.76;43.08;101027.25;5093424;28;20044;-69
2022/04/16 09:35:37;;;;;;;3.38;2.78;;;;;;;20.67;42.95;101010.63;5094844;28;20556;-69
2022/04/16 09:38:14;;;;;;;4.47;3.45;;;;;;;20.80;43.24;101005.94;5093218;28;20525;-68
2022/04/16 09:40:46;;;;;;;3.78;2.88;;;;;;;20.92;42.45;101007.19;5094668;28;20379;-68
2022/04/16 09:43:15;;;;;;;4.75;2.63;;;;;;;20.75;42.73;101010.88;5092580;28;20048;-68
2022/04/16 09:45:43;;;;;;;3.55;3.25;;;;;;;20.79;42.76;101006.28;5094753;28;20040;-68
2022/04/16 09:48:13;;;;;;;5.28;2.95;;;;;;;20.93;43.20;100994.91;5093566;28;20063;-68
2022/04/16 09:50:43;;;;;;;4.63;3.25;;;;;;;20.90;42.71;101001.13;5094448;28;20040;-68
2022/04/16 09:53:12;;;;;;;3.42;3.13;;;;;;;20.98;42.95;100993.88;5094439;28;20040;-68
2022/04/16 09:55:41;;;;;;;3.35;2.90;;;;;;;21.10;43.41;101012.59;5094395;28;20044;-68
2022/04/16 09:58:13;;;;;;;4.60;3.65;;;;;;;21.09;42.95;101017.34;5094430;28;20405;-68
2022/04/16 10:00:41;;;;;;;4.32;3.72;;;;;;;21.08;43.23;101012.94;5094281;28;20044;-69
2022/04/16 10:03:30;;;;;;;3.47;3.17;;;;;;;21.01;43.46;101012.69;5094105;28;20387;-68
2022/04/16 10:05:59;;;;;;;4.03;3.22;;;;;;;21.06;43.56;101020.78;5090187;28;20044;-68
2022/04/16 10:08:28;;;;;;;5.85;3.47;;;;;;;20.99;43.98;101013.00;5094218;28;20055;-68
2022/04/16 10:10:57;;;;;;;3.67;3.20;;;;;;;21.14;44.37;101008.78;5093794;28;20054;-69
2022/04/16 10:13:31;;;;;;;3.25;3.00;;;;;;;21.28;43.88;101004.88;5079228;28;20044;-69
2022/04/16 10:16:13;;;;;;;3.80;2.70;;;;;;;21.30;43.15;101008.13;5093847;28;20067;-69
2022/04/16 10:18:44;;;;;;;3.78;2.75;;;;;;;21.34;42.87;101009.06;5093894;28;20044;-68
2022/04/16 10:21:16;;;;;;;4.10;2.53;;;;;;;21.47;41.34;101012.72;5093769;28;20036;-69
2022/04/16 10:23:46;;;;;;;4.05;2.72;;;;;;;21.65;40.72;101002.19;5093754;28;20052;-69
2022/04/16 10:26:17;;;;;;;2.30;2.10;;;;;;;;;;5078772;28;20044;-68
2022/04/16 10:28:51;;;;;;;2.30;2.10;;;;;;;21.62;40.24;101006.47;5093993;28;20382;-68
2022/04/16 10:31:30;;;;;;;2.58;1.85;;;;;;;21.83;38.96;101008.38;5093763;28;20044;-69
2022/04/16 10:34:06;;;;;;;5.28;2.75;;;;;;;21.81;39.25;101007.09;5093810;28;20044;-68
2022/04/16 10:36:38;;;;;;;3.13;2.08;;;;;;;21.70;39.59;101001.97;5084595;28;20479;-68
2022/04/16 10:39:17;;;;;;;2.70;2.25;;;;;;;21.48;40.37;101012.38;5093646;28;20752;-68
2022/04/16 10:42:01;;;;;;;2.67;2.30;;;;;;;21.70;41.11;101018.69;5089950;28;20063;-69
2022/04/16 10:44:31;;;;;;;4.27;1.97;;;;;;;21.49;40.95;101010.38;5083318;28;20048;-69
2022/04/16 10:46:59;;;;;;;2.30;2.10;;;;;;;21.46;40.59;100986.84;5093305;28;20040;-68
2022/04/16 10:49:28;;;;;;;3.05;1.90;;;;;;;21.88;39.52;101001.78;5092164;28;20051;-69
2022/04/16 10:51:56;;;;;;;2.60;2.20;;;;;;;21.83;39.80;100991.69;5089975;28;20049;-68
2022/04/16 10:54:34;;;;;;;2.22;2.03;;;;;;;22.06;39.62;100999.56;5093356;28;20044;-69
2022/04/16 10:57:06;;;;;;;2.10;1.88;;;;;;;22.23;38.94;101001.28;5092746;28;20040;-68
2022/04/16 10:59:42;;;;;;;5.85;2.50;;;;;;;22.21;38.20;100998.06;5091985;28;20044;-68
2022/04/16 11:02:34;;;;;;;2.30;2.10;;;;;;;22.25;37.89;101000.94;5084537;28;20047;-68
2022/04/16 11:05:08;;;;;;;2.22;1.90;;;;;;;22.38;37.22;100996.19;5091818;28;20501;-68
2022/04/16 11:07:37;;;;;;;;;;;;;;;22.48;38.33;100998.47;5093237;28;20056;-68
2022/04/16 11:10:08;;;;;;;2.00;1.80;;;;;;;22.55;37.72;100979.19;5092961;28;19927;-68
2022/04/16 11:12:40;;;;;;;2.03;1.88;;;;;;;22.71;37.49;100984.03;5083575;28;20044;-69
2022/04/16 11:15:13;;;;;;;2.13;1.77;;;;;;;22.35;36.68;100980.97;5070955;28;20048;-68
2022/04/16 11:17:41;;;;;;;1.80;1.65;;;;;;;22.59;36.25;100972.91;5069538;28;20478;-68
2022/04/16 11:20:10;;;;;;;1.80;1.63;;;;;;;22.66;36.43;100962.78;5055066;28;20053;-68
2022/04/16 11:22:38;;;;;;;2.75;2.20;;;;;;;22.31;37.13;100977.25;5056483;28;20040;-68
2022/04/16 11:25:07;;;;;;;1.80;1.65;;;;;;;22.39;36.91;100967.13;5059652;28;20048;-68
2022/04/16 11:36:08;;;;;;;4.40;1.95;;;;;;;22.81;36.67;100972.38;5051418;28;20731;-68
2022/04/16 11:38:39;;;;;;;2.15;1.85;;;;;;;22.84;36.76;100958.88;5053855;28;20044;-68
2022/04/16 11:41:10;;;;;;;2.30;1.95;;;;;;;22.68;36.94;100963.22;5069579;28;20033;-68
2022/04/16 11:43:51;;;;;;;3.10;1.98;;;;;;;22.57;37.08;100952.94;5070258;28;20734;-68
2022/04/16 11:46:22;;;;;;;3.88;1.70;;;;;;;22.69;37.62;100941.75;5070299;28;20040;-68
2022/04/16 11:48:51;;;;;;;3.55;2.00;;;;;;;22.95;36.58;100938.50;5069432;28;20047;-68
2022/04/16 11:51:20;;;;;;;2.15;1.83;;;;;;;22.91;35.68;100951.53;5069325;28;20045;-67
2022/04/16 11:53:51;;;;;;;4.25;1.67;;;;;;;23.24;36.11;100941.22;5070304;28;20041;-68
2022/04/16 11:56:21;;;;;;;3.15;1.83;;;;;;;23.40;35.24;100927.31;5069201;28;20051;-68
2022/04/16 11:58:51;;;;;;;2.08;1.88;;;;;;;23.52;35.90;100929.22;5069673;28;20032;-68
2022/04/16 12:01:21;;;;;;;2.08;1.70;;;;;;;23.58;35.39;100941.72;5069155;28;20040;-69